createdAt,value
2023-04-04T00:00:12.483Z,65.65
2023-04-04T00:02:40.451Z,65.83
2023-04-04T00:05:10.269Z,65.53
2023-04-04T00:07:38.016Z,65.74
2023-04-04T00:10:06.410Z,65.16
2023-04-04T00:12:34.178Z,65.83
2023-04-04T00:15:02.825Z,66.39
2023-04-04T00:17:30.657Z,66.31
2023-04-04T00:19:58.704Z,65.61
2023-04-04T00:22:28.284Z,66.01
2023-04-04T00:24:56.048Z,65.75
2023-04-04T00:27:23.884Z,65.29
2023-04-04T00:29:51.706Z,65.72
2023-04-04T00:32:19.544Z,65.00
2023-04-04T00:34:47.310Z,64.99
2023-04-04T00:37:14.990Z,64.90
2023-04-04T00:39:44.764Z,65.12
2023-04-04T00:42:12.828Z,65.25
2023-04-04T00:44:40.549Z,64.76
2023-04-04T00:47:08.360Z,65.24
2023-04-04T00:49:37.818Z,65.05
2023-04-04T00:52:07.415Z,64.63
2023-04-04T00:54:36.034Z,64.94
2023-04-04T00:57:08.109Z,65.03
2023-04-04T00:59:36.250Z,64.96
2023-04-04T01:02:04.205Z,65.62
2023-04-04T01:04:32.081Z,65.28
2023-04-04T01:07:00.553Z,65.71
2023-04-04T01:09:28.831Z,65.42
2023-04-04T01:11:57.320Z,65.49
2023-04-04T01:14:26.531Z,66.38
2023-04-04T01:16:55.003Z,66.80
2023-04-04T01:19:30.085Z,66.23
2023-04-04T01:22:00.545Z,66.82
2023-04-04T01:24:33.710Z,67.20
2023-04-04T01:27:03.019Z,67.05
2023-04-04T01:29:31.020Z,68.40
2023-04-04T01:32:05.207Z,67.45
2023-04-04T01:34:43.471Z,68.34
2023-04-04T01:37:19.476Z,68.57
2023-04-04T01:39:50.731Z,69.11
2023-04-04T01:42:21.056Z,69.11
2023-04-04T01:44:49.010Z,68.88
2023-04-04T01:47:16.984Z,68.84
2023-04-04T01:49:44.736Z,68.84
2023-04-04T01:52:12.507Z,69.28
2023-04-04T01:54:40.473Z,69.19
2023-04-04T01:57:08.535Z,69.56
2023-04-04T01:59:37.705Z,69.44
2023-04-04T02:02:05.797Z,68.79
2023-04-04T02:04:34.054Z,69.46
2023-04-04T02:07:01.965Z,68.65
2023-04-04T02:09:29.720Z,69.52
2023-04-04T02:11:57.474Z,69.22
2023-04-04T02:14:25.186Z,69.26
2023-04-04T02:16:54.340Z,69.88
2023-04-04T02:19:22.023Z,69.41
2023-04-04T02:21:49.730Z,68.61
2023-04-04T02:24:17.416Z,69.92
2023-04-04T02:26:45.141Z,69.38
2023-04-04T02:29:13.237Z,69.22
2023-04-04T02:31:41.060Z,69.26
2023-04-04T02:34:10.191Z,69.02
2023-04-04T02:36:38.116Z,69.97
2023-04-04T02:39:05.947Z,70.00
2023-04-04T02:41:33.742Z,69.13
2023-04-04T02:44:01.473Z,69.81
2023-04-04T02:46:29.231Z,69.92
2023-04-04T02:48:57.460Z,69.96
2023-04-04T02:51:26.589Z,69.50
2023-04-04T02:53:54.318Z,69.67
2023-04-04T02:56:22.105Z,70.37
2023-04-04T02:58:49.867Z,70.31
2023-04-04T03:01:17.765Z,70.43
2023-04-04T03:03:46.590Z,69.64
2023-04-04T03:06:14.917Z,70.75
2023-04-04T03:08:44.035Z,70.48
2023-04-04T03:11:11.933Z,70.48
2023-04-04T03:13:39.619Z,70.00
2023-04-04T03:16:07.821Z,69.70
2023-04-04T03:18:36.007Z,70.61
2023-04-04T03:21:03.819Z,70.02
2023-04-04T03:23:31.534Z,70.24
2023-04-04T03:26:00.792Z,70.32
2023-04-04T03:28:29.249Z,70.47
2023-04-04T03:30:57.636Z,70.02
2023-04-04T03:33:25.476Z,70.11
2023-04-04T03:35:53.211Z,70.85
2023-04-04T03:38:20.970Z,70.36
2023-04-04T03:40:48.692Z,70.73
2023-04-04T03:43:17.842Z,70.84
2023-04-04T03:45:45.737Z,71.58
2023-04-04T03:48:13.770Z,71.85
2023-04-04T03:50:41.767Z,72.36
2023-04-04T03:53:09.809Z,71.94
2023-04-04T03:55:37.522Z,72.50
2023-04-04T03:58:05.349Z,72.76
2023-04-04T04:00:37.328Z,73.43
2023-04-04T04:03:05.200Z,73.37
2023-04-04T04:05:33.022Z,73.03
2023-04-04T04:08:00.854Z,73.20
2023-04-04T04:10:28.620Z,72.89
2023-04-04T04:12:57.054Z,73.75
2023-04-04T04:15:24.778Z,72.99
2023-04-04T04:17:53.893Z,73.08
2023-04-04T04:20:21.659Z,73.06
2023-04-04T04:22:51.011Z,73.86
2023-04-04T04:25:20.494Z,74.20
2023-04-04T04:27:48.259Z,73.79
2023-04-04T04:30:16.239Z,74.08
2023-04-04T04:32:43.944Z,73.76
2023-04-04T04:35:13.115Z,73.85
2023-04-04T04:37:40.975Z,74.27
2023-04-04T04:40:10.616Z,74.17
2023-04-04T04:42:38.377Z,74.43
2023-04-04T04:45:07.295Z,74.47
2023-04-04T04:47:35.048Z,75.07
2023-04-04T04:50:02.869Z,74.94
2023-04-04T04:52:32.292Z,74.07
2023-04-04T04:55:00.008Z,74.32
2023-04-04T04:57:28.352Z,75.04
2023-04-04T04:59:56.071Z,75.32
2023-04-04T05:02:24.023Z,75.28
2023-04-04T05:04:51.854Z,75.18
2023-04-04T05:07:19.564Z,75.67
2023-04-04T05:09:48.669Z,75.46
2023-04-04T05:12:16.446Z,75.26
2023-04-04T05:14:44.660Z,76.18
2023-04-04T05:17:12.342Z,76.32
2023-04-04T05:19:40.107Z,76.39
2023-04-04T05:22:08.482Z,75.65
2023-04-04T05:24:36.261Z,75.86
2023-04-04T05:27:05.644Z,75.77
2023-04-04T05:29:33.412Z,76.66
2023-04-04T05:32:01.205Z,76.95
2023-04-04T05:34:28.962Z,76.94
2023-04-04T05:36:56.702Z,77.04
2023-04-04T05:39:24.497Z,77.32
2023-04-04T05:41:52.232Z,76.99
2023-04-04T05:44:21.362Z,76.49
2023-04-04T05:46:49.141Z,76.47
2023-04-04T05:49:17.003Z,77.35
2023-04-04T05:51:44.764Z,77.86
2023-04-04T05:54:12.512Z,77.59
2023-04-04T05:56:40.445Z,77.38
2023-04-04T05:59:08.357Z,78.01
2023-04-04T06:01:37.481Z,77.53
2023-04-04T06:04:05.364Z,78.56
2023-04-04T06:06:33.205Z,78.34
2023-04-04T06:09:00.962Z,78.52
2023-04-04T06:11:28.971Z,77.94
2023-04-04T06:13:56.741Z,78.95
2023-04-04T06:16:24.628Z,78.84
2023-04-04T06:18:53.805Z,79.06
2023-04-04T06:21:21.555Z,79.27
2023-04-04T06:23:49.332Z,78.76
2023-04-04T06:26:17.106Z,78.98
2023-04-04T06:28:49.418Z,78.85
2023-04-04T06:31:17.300Z,78.66
2023-04-04T06:33:45.480Z,79.25
2023-04-04T06:36:14.712Z,79.05
2023-04-04T06:38:42.534Z,79.33
2023-04-04T06:41:10.296Z,79.44
2023-04-04T06:43:38.037Z,79.40
2023-04-04T06:46:06.721Z,80.07
2023-04-04T06:48:34.479Z,79.86
2023-04-04T06:51:02.325Z,80.10
2023-04-04T06:53:32.270Z,80.32
2023-04-04T06:56:00.068Z,80.22
2023-04-04T06:58:27.858Z,80.12
2023-04-04T07:00:56.566Z,79.07
2023-04-04T07:03:24.754Z,79.35
2023-04-04T07:05:52.559Z,79.64
2023-04-04T07:08:20.435Z,80.26
2023-04-04T07:10:49.552Z,79.79
2023-04-04T07:13:17.300Z,79.37
2023-04-04T07:15:48.785Z,78.98
2023-04-04T07:18:16.672Z,77.93
2023-04-04T07:20:44.684Z,77.74
2023-04-04T07:23:12.423Z,77.31
2023-04-04T07:25:41.470Z,76.66
2023-04-04T07:28:13.518Z,75.77
2023-04-04T07:30:41.865Z,74.51
2023-04-04T07:33:10.015Z,72.79
2023-04-04T07:35:38.047Z,72.17
2023-04-04T07:38:06.289Z,72.06
2023-04-04T07:40:34.110Z,72.21
2023-04-04T07:43:01.823Z,71.07
2023-04-04T07:45:31.184Z,69.12
2023-04-04T07:47:59.395Z,67.24
2023-04-04T07:50:27.358Z,67.56
2023-04-04T07:52:56.083Z,66.75
2023-04-04T07:55:25.258Z,65.94
2023-04-04T07:57:53.512Z,65.25
2023-04-04T08:00:22.667Z,65.21
2023-04-04T08:02:54.717Z,63.08
2023-04-04T08:05:22.692Z,62.67
2023-04-04T08:07:50.563Z,61.92
2023-04-04T08:10:19.193Z,56.42
2023-04-04T08:12:47.134Z,58.03
2023-04-04T08:15:15.030Z,57.04
2023-04-04T08:17:43.520Z,53.87
2023-04-04T08:20:14.315Z,55.08
2023-04-04T08:22:43.393Z,52.35
2023-04-04T08:25:11.319Z,49.17
2023-04-04T08:27:41.056Z,47.96
2023-04-04T08:30:10.183Z,47.27
2023-04-04T08:32:37.971Z,47.28
2023-04-04T08:35:06.474Z,46.36
2023-04-04T08:37:36.161Z,46.31
2023-04-04T08:40:04.292Z,45.83
2023-04-04T08:42:35.801Z,46.67
2023-04-04T08:45:05.412Z,43.47
2023-04-04T08:47:36.096Z,44.23
2023-04-04T08:50:07.229Z,45.57
2023-04-04T08:52:36.820Z,44.51
2023-04-04T08:55:06.284Z,44.30
2023-04-04T08:57:34.325Z,44.59
2023-04-04T09:00:03.224Z,43.28
2023-04-04T09:02:35.988Z,44.40
2023-04-04T09:05:06.725Z,44.40
2023-04-04T09:07:38.769Z,43.91
2023-04-04T09:10:09.855Z,43.93
2023-04-04T09:12:39.066Z,43.78
2023-04-04T09:15:07.818Z,44.46
2023-04-04T09:17:35.735Z,43.70
2023-04-04T09:20:05.103Z,43.96
2023-04-04T09:22:32.922Z,43.80
2023-04-04T09:25:02.036Z,42.68
2023-04-04T09:27:29.779Z,42.43
2023-04-04T09:30:05.685Z,41.34
2023-04-04T09:32:34.903Z,40.67
2023-04-04T09:35:03.344Z,41.85
2023-04-04T09:37:31.721Z,41.18
2023-04-04T09:39:59.560Z,41.29
2023-04-04T09:42:29.296Z,40.57
2023-04-04T09:44:57.549Z,40.53
2023-04-04T09:49:59.524Z,41.48
2023-04-04T09:52:27.918Z,41.10
2023-04-04T09:54:59.796Z,41.72
2023-04-04T09:57:30.469Z,40.72
2023-04-04T10:00:00.144Z,41.66
2023-04-04T10:02:28.557Z,41.20
2023-04-04T10:05:05.880Z,41.08
2023-04-04T10:07:34.672Z,41.03
2023-04-04T10:10:04.984Z,41.73
2023-04-04T10:12:34.670Z,40.80
2023-04-04T10:15:03.358Z,41.05
2023-04-04T10:17:32.213Z,40.44
2023-04-04T10:20:02.343Z,40.80
2023-04-04T10:22:30.459Z,40.84
2023-04-04T10:24:59.065Z,39.20
2023-04-04T10:27:27.386Z,40.57
2023-04-04T10:29:57.251Z,38.71
2023-04-04T10:32:34.782Z,41.09
2023-04-04T10:35:05.235Z,41.03
2023-04-04T10:37:38.500Z,40.76
2023-04-04T10:40:10.477Z,40.92
2023-04-04T10:42:40.853Z,40.70
2023-04-04T10:45:20.385Z,40.38
2023-04-04T10:47:49.939Z,39.45
2023-04-04T10:50:17.694Z,38.42
2023-04-04T10:52:46.733Z,38.34
2023-04-04T10:55:15.979Z,37.28
2023-04-04T10:57:47.265Z,37.77
2023-04-04T11:00:19.338Z,39.36
2023-04-04T11:02:49.984Z,39.07
2023-04-04T11:05:22.916Z,39.16
2023-04-04T11:08:07.627Z,39.59
2023-04-04T11:10:38.021Z,39.62
2023-04-04T11:13:14.036Z,38.98
2023-04-04T11:15:55.844Z,39.04
2023-04-04T11:18:45.568Z,39.09
2023-04-04T11:21:16.748Z,39.46
2023-04-04T11:24:15.789Z,38.34
2023-04-04T11:26:45.462Z,38.28
2023-04-04T11:29:22.273Z,36.55
2023-04-04T11:31:53.308Z,37.00
2023-04-04T11:34:34.315Z,37.27
2023-04-04T11:37:17.609Z,38.19
2023-04-04T11:39:50.694Z,38.50
2023-04-04T11:42:21.928Z,37.57
2023-04-04T11:45:04.018Z,37.27
2023-04-04T11:47:33.752Z,38.34
2023-04-04T11:50:02.306Z,38.63
2023-04-04T11:52:35.041Z,37.80
2023-04-04T11:55:02.905Z,38.31
2023-04-04T11:57:30.667Z,38.14
2023-04-04T11:59:58.805Z,37.26
2023-04-04T12:02:31.893Z,38.72
2023-04-04T12:05:01.642Z,39.55
2023-04-04T12:07:30.524Z,38.22
2023-04-04T12:09:58.983Z,37.86
2023-04-04T12:12:27.612Z,38.65
2023-04-04T12:15:06.168Z,37.99
2023-04-04T12:17:40.698Z,37.45
2023-04-04T12:20:11.598Z,37.56
2023-04-04T12:22:39.763Z,36.30
2023-04-04T12:25:08.683Z,35.81
2023-04-04T12:27:37.976Z,37.09
2023-04-04T12:30:11.253Z,35.04
2023-04-04T12:32:39.360Z,37.04
2023-04-04T12:35:08.399Z,37.83
2023-04-04T12:37:37.977Z,37.17
2023-04-04T12:40:07.458Z,36.51
2023-04-04T12:42:35.989Z,36.08
2023-04-04T12:45:05.294Z,37.26
2023-04-04T12:47:33.149Z,37.89
2023-04-04T12:50:01.170Z,37.26
2023-04-04T12:52:32.302Z,36.68
2023-04-04T12:55:09.812Z,37.12
2023-04-04T12:57:40.523Z,35.94
2023-04-04T13:00:09.685Z,36.43
2023-04-04T13:02:38.927Z,37.01
2023-04-04T13:05:08.283Z,35.43
2023-04-04T13:07:42.974Z,35.26
2023-04-04T13:10:15.891Z,35.02
2023-04-04T13:12:58.439Z,34.22
2023-04-04T13:15:50.362Z,34.15
2023-04-04T13:18:21.169Z,34.47
2023-04-04T13:20:49.098Z,34.46
2023-04-04T13:23:17.638Z,34.12
2023-04-04T13:25:47.153Z,34.34
2023-04-04T13:28:15.084Z,34.19
2023-04-04T13:30:46.783Z,34.06
2023-04-04T13:33:14.695Z,34.05
2023-04-04T13:35:43.887Z,33.76
2023-04-04T13:38:12.744Z,34.16
2023-04-04T13:40:40.782Z,33.15
2023-04-04T13:43:11.328Z,33.11
2023-04-04T13:45:39.572Z,33.09
2023-04-04T13:48:07.677Z,33.36
2023-04-04T13:50:37.213Z,32.25
2023-04-04T13:53:05.143Z,32.77
2023-04-04T13:55:33.009Z,33.06
2023-04-04T13:58:00.836Z,33.53
2023-04-04T14:00:29.970Z,34.17
2023-04-04T14:02:58.755Z,32.42
2023-04-04T14:05:26.626Z,33.82
2023-04-04T14:07:54.484Z,33.68
2023-04-04T14:10:22.262Z,34.04
2023-04-04T14:12:50.109Z,33.14
2023-04-04T14:15:18.664Z,33.13
2023-04-04T14:17:47.846Z,33.88
2023-04-04T14:20:16.665Z,35.01
2023-04-04T14:22:44.727Z,34.84
2023-04-04T14:25:12.532Z,34.18
2023-04-04T14:27:40.397Z,33.76
2023-04-04T14:30:09.186Z,34.02
2023-04-04T14:32:37.024Z,34.85
2023-04-04T14:35:07.017Z,35.38
2023-04-04T14:37:34.753Z,35.17
2023-04-04T14:40:02.691Z,34.99
2023-04-04T14:42:30.491Z,35.62
2023-04-04T14:44:58.631Z,34.31
2023-04-04T14:47:26.522Z,33.58
2023-04-04T14:49:54.990Z,34.51
2023-04-04T14:52:25.112Z,35.19
2023-04-04T14:54:52.951Z,35.64
2023-04-04T14:57:20.981Z,35.28
2023-04-04T14:59:48.781Z,34.57
2023-04-04T15:02:16.821Z,35.80
2023-04-04T15:04:44.813Z,35.56
2023-04-04T15:07:12.795Z,34.96
2023-04-04T15:09:41.910Z,35.19
2023-04-04T15:12:09.783Z,35.06
2023-04-04T15:14:37.607Z,34.97
2023-04-04T15:17:05.518Z,35.08
2023-04-04T15:19:33.468Z,35.40
2023-04-04T15:22:01.600Z,35.37
2023-04-04T15:24:29.407Z,34.76
2023-04-04T15:26:58.573Z,34.93
2023-04-04T15:29:26.328Z,35.07
2023-04-04T15:31:54.159Z,35.54
2023-04-04T15:34:21.910Z,34.89
2023-04-04T15:36:50.819Z,35.30
2023-04-04T15:39:18.774Z,36.37
2023-04-04T15:41:46.556Z,37.37
2023-04-04T15:44:16.493Z,37.88
2023-04-04T15:46:45.438Z,39.05
2023-04-04T15:49:13.211Z,39.51
2023-04-04T15:51:43.712Z,39.19
2023-04-04T15:54:11.579Z,39.27
2023-04-04T15:56:39.374Z,38.65
2023-04-04T15:59:07.547Z,39.17
2023-04-04T16:01:37.495Z,40.29
2023-04-04T16:04:05.527Z,40.41
2023-04-04T16:06:33.301Z,39.87
2023-04-04T16:09:01.218Z,39.63
2023-04-04T16:11:28.967Z,40.49
2023-04-04T16:13:56.771Z,39.81
2023-04-04T16:16:24.644Z,40.21
2023-04-04T16:18:53.859Z,40.88
2023-04-04T16:21:21.619Z,41.54
2023-04-04T16:23:49.380Z,41.06
2023-04-04T16:26:17.244Z,40.60
2023-04-04T16:28:46.945Z,40.28
2023-04-04T16:31:15.455Z,40.50
2023-04-04T16:33:43.537Z,40.97
2023-04-04T16:36:12.790Z,40.95
2023-04-04T16:38:40.566Z,41.23
2023-04-04T16:41:08.416Z,41.60
2023-04-04T16:43:36.360Z,41.69
2023-04-04T16:46:04.242Z,41.08
2023-04-04T16:48:32.040Z,42.25
2023-04-04T16:50:59.827Z,41.68
2023-04-04T16:53:29.018Z,41.74
2023-04-04T16:55:56.795Z,41.95
2023-04-04T16:58:24.571Z,41.80
2023-04-04T17:00:52.430Z,42.18
2023-04-04T17:03:20.212Z,42.60
2023-04-04T17:05:48.230Z,43.44
2023-04-04T17:08:16.021Z,42.49
2023-04-04T17:10:45.226Z,42.84
2023-04-04T17:13:13.004Z,42.93
2023-04-04T17:15:40.942Z,43.33
2023-04-04T17:18:09.023Z,43.28
2023-04-04T17:20:38.053Z,43.82
2023-04-04T17:23:06.175Z,43.68
2023-04-04T17:25:33.930Z,43.96
2023-04-04T17:28:04.230Z,44.12
2023-04-04T17:30:32.212Z,44.30
2023-04-04T17:33:00.138Z,45.28
2023-04-04T17:35:28.043Z,45.44
2023-04-04T17:37:56.067Z,45.97
2023-04-04T17:40:23.873Z,45.96
2023-04-04T17:42:51.810Z,45.27
2023-04-04T17:45:21.082Z,45.22
2023-04-04T17:47:49.076Z,45.00
2023-04-04T17:50:16.989Z,45.04
2023-04-04T17:52:44.726Z,45.10
2023-04-04T17:55:12.731Z,45.87
2023-04-04T17:57:41.075Z,45.42
2023-04-04T18:00:11.025Z,45.30
2023-04-04T18:02:40.454Z,44.76
2023-04-04T18:05:10.234Z,45.54
2023-04-04T18:07:38.020Z,45.86
2023-04-04T18:10:06.802Z,46.08
2023-04-04T18:12:35.816Z,46.11
2023-04-04T18:15:04.240Z,46.54
2023-04-04T18:17:33.354Z,47.19
2023-04-04T18:20:04.229Z,47.80
2023-04-04T18:22:32.361Z,48.16
2023-04-04T18:25:00.594Z,48.24
2023-04-04T18:27:28.332Z,49.03
2023-04-04T18:29:56.091Z,49.21
2023-04-04T18:32:26.368Z,49.38
2023-04-04T18:34:54.178Z,49.32
2023-04-04T18:37:23.306Z,49.53
2023-04-04T18:39:51.177Z,49.16
2023-04-04T18:42:18.973Z,49.62
2023-04-04T18:44:46.984Z,49.36
2023-04-04T18:47:14.803Z,49.67
2023-04-04T18:49:42.585Z,50.43
2023-04-04T18:52:10.511Z,50.48
2023-04-04T18:54:39.752Z,50.33
2023-04-04T18:57:07.532Z,51.18
2023-04-04T18:59:35.305Z,50.68
2023-04-04T19:02:03.207Z,51.09
2023-04-04T19:04:31.738Z,51.14
2023-04-04T19:07:06.295Z,51.32
2023-04-04T19:09:34.400Z,51.35
2023-04-04T19:12:03.960Z,50.77
2023-04-04T19:14:31.779Z,51.10
2023-04-04T19:16:59.695Z,50.99
2023-04-04T19:19:27.579Z,51.22
2023-04-04T19:21:55.404Z,51.18
2023-04-04T19:24:23.166Z,51.20
2023-04-04T19:26:50.957Z,50.95
2023-04-04T19:29:22.659Z,50.69
2023-04-04T19:31:50.552Z,51.00
2023-04-04T19:34:18.672Z,50.97
2023-04-04T19:36:46.607Z,50.57
2023-04-04T19:39:20.763Z,50.60
2023-04-04T19:41:48.540Z,51.21
2023-04-04T19:44:21.315Z,51.30
2023-04-04T19:46:49.356Z,51.38
2023-04-04T19:49:17.958Z,51.36
2023-04-04T19:51:53.529Z,52.60
2023-04-04T19:54:26.293Z,52.39
2023-04-04T19:57:00.315Z,52.80
2023-04-04T19:59:55.796Z,52.81
2023-04-04T20:02:54.467Z,53.48
2023-04-04T20:05:52.019Z,52.96
2023-04-04T20:08:19.764Z,53.40
2023-04-04T20:10:47.686Z,53.82
2023-04-04T20:13:15.492Z,54.64
2023-04-04T20:16:06.588Z,54.31
2023-04-04T20:18:36.274Z,54.20
2023-04-04T20:21:07.644Z,55.31
2023-04-04T20:23:46.593Z,54.70
2023-04-04T20:26:34.971Z,55.17
2023-04-04T20:29:02.951Z,55.15
2023-04-04T20:31:35.929Z,56.17
2023-04-04T20:34:06.887Z,56.14
2023-04-04T20:36:42.883Z,56.55
2023-04-04T20:39:39.182Z,57.06
2023-04-04T20:42:29.951Z,57.30
2023-04-04T20:45:00.632Z,56.96
2023-04-04T20:47:44.769Z,57.33
2023-04-04T20:50:43.516Z,57.97
2023-04-04T20:53:18.581Z,57.91
2023-04-04T20:55:46.355Z,59.19
2023-04-04T20:58:27.974Z,58.89
2023-04-04T21:00:56.910Z,59.17
2023-04-04T21:03:32.464Z,59.70
2023-04-04T21:06:03.521Z,60.02
2023-04-04T21:08:39.213Z,59.70
2023-04-04T21:11:07.852Z,59.93
2023-04-04T21:13:37.890Z,59.59
2023-04-04T21:16:09.664Z,60.17
2023-04-04T21:18:39.964Z,60.67
2023-04-04T21:21:13.077Z,60.67
2023-04-04T21:23:45.811Z,61.06
2023-04-04T21:26:22.614Z,61.25
2023-04-04T21:28:51.401Z,61.45
2023-04-04T21:31:23.850Z,60.80
2023-04-04T21:33:54.775Z,60.81
2023-04-04T21:36:29.787Z,62.09
2023-04-04T21:38:59.359Z,62.16
2023-04-04T21:41:28.394Z,61.57
2023-04-04T21:43:58.112Z,61.94
2023-04-04T21:46:27.730Z,62.46
2023-04-04T21:48:57.505Z,62.64
2023-04-04T21:51:26.208Z,62.31
2023-04-04T21:53:54.722Z,62.99
2023-04-04T21:56:27.108Z,63.02
2023-04-04T21:58:55.516Z,63.51
2023-04-04T22:01:23.395Z,63.88
2023-04-04T22:03:51.250Z,64.28
2023-04-04T22:06:22.243Z,65.68
2023-04-04T22:08:50.030Z,66.21
2023-04-04T22:11:19.307Z,66.82
2023-04-04T22:13:48.185Z,66.77
2023-04-04T22:16:16.999Z,67.32
2023-04-04T22:18:46.897Z,67.70
2023-04-04T22:21:15.560Z,68.00
2023-04-04T22:23:44.740Z,69.21
2023-04-04T22:26:15.037Z,69.58
2023-04-04T22:28:45.801Z,70.71
2023-04-04T22:31:13.861Z,71.37
2023-04-04T22:33:41.809Z,71.55
2023-04-04T22:36:10.364Z,71.56
2023-04-04T22:38:39.333Z,71.89
2023-04-04T22:41:08.432Z,71.23
2023-04-04T22:43:36.199Z,71.86
2023-04-04T22:46:04.003Z,72.34
2023-04-04T22:48:31.775Z,72.34
2023-04-04T22:51:02.797Z,72.51
2023-04-04T22:53:30.545Z,72.56
2023-04-04T22:56:00.667Z,72.80
2023-04-04T22:58:29.803Z,72.76
2023-04-04T23:00:57.615Z,72.37
2023-04-04T23:03:25.366Z,72.59
2023-04-04T23:05:53.077Z,72.31
2023-04-04T23:08:20.968Z,72.44
2023-04-04T23:10:48.709Z,72.42
2023-04-04T23:13:16.488Z,72.58
2023-04-04T23:15:45.649Z,72.65
2023-04-04T23:18:13.528Z,72.79
2023-04-04T23:20:42.626Z,72.89
2023-04-04T23:23:10.656Z,73.04
2023-04-04T23:25:38.413Z,73.31
2023-04-04T23:28:06.218Z,73.58
2023-04-04T23:30:34.180Z,73.71
2023-04-04T23:33:03.242Z,73.94
2023-04-04T23:35:31.160Z,74.00
2023-04-04T23:37:58.910Z,73.75
2023-04-04T23:40:26.694Z,74.32
2023-04-04T23:42:54.390Z,74.25
2023-04-04T23:45:22.343Z,74.15
2023-04-04T23:47:50.160Z,74.36
2023-04-04T23:50:19.506Z,74.60
2023-04-04T23:52:47.283Z,74.34
2023-04-04T23:55:17.033Z,74.26
2023-04-04T23:57:44.977Z,74.21
